Terminal Aerodrome Forecast
Issued by NWS

Home | Current Version | Previous Version | Text Only | Print | Product List | Glossary On
Versions: 1 2 3 4 5 6 7 8 9 10 11 12 13 14 15 16 17
000
FTUS43 KGRB 171400 AAA
TAFATW
TAF AMD
KATW 171416Z 1714/1812 14010KT P6SM BKN035
     FM171800 26011G19KT P6SM BKN020
     FM172200 29009KT P6SM BKN035
     FM180400 31006KT P6SM SCT035=

USA.gov is the U.S. government's official web portal to all federal, state and local government web resources and services.